Time;durP1;ratioP1;P1;durP2;ratioP2;P2;SDS_P1;SDS_P2;PMS_P1;PMS_P2;Temp;Humidity;BMP_temperature;BMP_pressure;BME280_temperature;BME280_humidity;BME280_pressure;Samples;Min_cycle;Max_cycle;Signal;HPM_P1;HPM_P2
2023/07/28 00:02:26;;;;;;;17.02;11.38;;;;;;;;;;5041918;28;20053;-65
2023/07/28 00:04:52;;;;;;;18.80;11.70;;;;;;;;;;5042628;28;20083;-65
2023/07/28 00:07:19;;;;;;;19.55;12.30;;;;;;;;;;5042711;28;20084;-60
2023/07/28 00:09:45;;;;;;;16.30;11.57;;;;;;;;;;5041536;28;20089;-65
2023/07/28 00:12:12;;;;;;;22.42;13.02;;;;;;;;;;5043772;28;20559;-64
2023/07/28 00:14:38;;;;;;;20.63;12.73;;;;;;;;;;5042070;28;20065;-60
2023/07/28 00:17:05;;;;;;;18.80;13.05;;;;;;;;;;5042795;28;20049;-61
2023/07/28 00:19:31;;;;;;;25.20;13.68;;;;;;;;;;5031172;28;20491;-60
2023/07/28 00:21:58;;;;;;;23.65;13.77;;;;;;;;;;5043765;28;20053;-66
2023/07/28 00:24:24;;;;;;;23.10;13.35;;;;;;;;;;5037858;28;20525;-63
2023/07/28 00:26:51;;;;;;;21.77;13.63;;;;;;;;;;5043170;28;20053;-65
2023/07/28 00:29:17;;;;;;;18.63;12.27;;;;;;;;;;5042576;28;20139;-65
2023/07/28 00:31:43;;;;;;;19.80;11.93;;;;;;;;;;5041761;28;20045;-63
2023/07/28 00:34:10;;;;;;;21.80;13.63;;;;;;;;;;5042291;28;20518;-62
2023/07/28 00:36:36;;;;;;;23.85;12.35;;;;;;;;;;5043252;28;20084;-61
2023/07/28 00:39:03;;;;;;;17.55;10.52;;;;;;;;;;5034510;28;20081;-63
2023/07/28 00:41:30;;;;;;;20.08;12.23;;;;;;;;;;5037110;28;20053;-61
2023/07/28 00:43:56;;;;;;;15.02;10.23;;;;;;;;;;5041665;28;20065;-63
2023/07/28 00:46:23;;;;;;;17.40;10.45;;;;;;;;;;5043222;28;20535;-65
2023/07/28 00:48:49;;;;;;;14.90;9.25;;;;;;;;;;5043273;28;20061;-62
2023/07/28 00:51:16;;;;;;;17.70;9.48;;;;;;;;;;5043176;28;20061;-64
2023/07/28 00:53:43;;;;;;;16.00;9.38;;;;;;;;;;5041059;28;20061;-65
2023/07/28 00:56:10;;;;;;;17.65;9.60;;;;;;;;;;5043037;28;20049;-62
2023/07/28 00:58:36;;;;;;;17.50;9.48;;;;;;;;;;5042561;28;20057;-65
2023/07/28 01:01:03;;;;;;;16.23;9.65;;;;;;;;;;5026765;28;20053;-57
2023/07/28 01:03:30;;;;;;;21.77;10.05;;;;;;;;;;5042199;28;20077;-64
2023/07/28 01:06:03;;;;;;;17.30;9.85;;;;;;;;;;5042787;28;20057;-62
2023/07/28 01:08:29;;;;;;;16.17;10.35;;;;;;;;;;5042455;28;20058;-65
2023/07/28 01:10:55;;;;;;;19.92;9.70;;;;;;;;;;5042374;28;20050;-63
2023/07/28 01:13:22;;;;;;;22.90;10.20;;;;;;;;;;5041303;28;20061;-62
2023/07/28 01:15:48;;;;;;;16.98;10.90;;;;;;;;;;5038140;28;20058;-65
2023/07/28 01:18:15;;;;;;;17.30;9.90;;;;;;;;;;5029819;28;20053;-60
2023/07/28 01:20:42;;;;;;;18.45;9.27;;;;;;;;;;5041780;28;20057;-64
2023/07/28 01:23:16;;;;;;;24.23;11.18;;;;;;;;;;5042725;28;20060;-65
2023/07/28 01:25:42;;;;;;;16.67;10.35;;;;;;;;;;5035071;28;20654;-65
2023/07/28 01:28:10;;;;;;;16.88;10.13;;;;;;;;;;5040342;28;20221;-61
2023/07/28 01:30:37;;;;;;;21.17;11.07;;;;;;;;;;5042603;28;20499;-64
2023/07/28 01:33:05;;;;;;;24.08;11.90;;;;;;;;;;5042598;28;20478;-60
2023/07/28 01:35:32;;;;;;;17.83;9.68;;;;;;;;;;5040610;28;20060;-65
2023/07/28 01:37:58;;;;;;;19.60;9.00;;;;;;;;;;5042010;28;20045;-61
2023/07/28 01:40:25;;;;;;;22.55;11.02;;;;;;;;;;5043403;28;20639;-65
2023/07/28 01:42:51;;;;;;;14.10;9.85;;;;;;;;;;5040340;28;20053;-64
2023/07/28 01:45:17;;;;;;;21.05;9.82;;;;;;;;;;5034332;28;20140;-61
2023/07/28 01:47:44;;;;;;;25.20;11.25;;;;;;;;;;5041319;28;20140;-65
2023/07/28 01:50:10;;;;;;;17.65;10.80;;;;;;;;;;5040729;28;20052;-65
2023/07/28 01:52:37;;;;;;;22.63;11.82;;;;;;;;;;5040816;28;20147;-62
2023/07/28 01:55:03;;;;;;;18.63;10.55;;;;;;;;;;5039972;28;20080;-62
2023/07/28 01:57:33;;;;;;;18.55;10.23;;;;;;;;;;5041752;28;20069;-60
2023/07/28 02:00:00;;;;;;;24.27;10.40;;;;;;;;;;5041422;28;20053;-65
2023/07/28 02:02:26;;;;;;;23.05;9.95;;;;;;;;;;5026413;28;20223;-63
2023/07/28 02:04:53;;;;;;;26.33;10.95;;;;;;;;;;5031161;28;20630;-64
2023/07/28 02:07:19;;;;;;;18.88;10.25;;;;;;;;;;5041849;28;20140;-63
2023/07/28 02:09:45;;;;;;;22.00;10.18;;;;;;;;;;5041073;28;20049;-64
2023/07/28 02:12:12;;;;;;;27.50;10.43;;;;;;;;;;5042571;28;20616;-65
2023/07/28 02:14:38;;;;;;;16.35;9.55;;;;;;;;;;5044293;28;20057;-62
2023/07/28 02:17:05;;;;;;;16.98;9.88;;;;;;;;;;5044833;28;20136;-63
2023/07/28 02:19:32;;;;;;;21.55;10.57;;;;;;;;;;5045329;28;20061;-65
2023/07/28 02:21:59;;;;;;;16.95;10.43;;;;;;;;;;5044852;28;20050;-66
2023/07/28 02:24:25;;;;;;;21.63;10.90;;;;;;;;;;5043953;28;20523;-63
2023/07/28 02:26:54;;;;;;;20.52;11.10;;;;;;;;;;5045428;28;20535;-63
2023/07/28 02:29:20;;;;;;;15.20;9.80;;;;;;;;;;5044557;28;20053;-65
2023/07/28 02:31:47;;;;;;;22.13;11.43;;;;;;;;;;5045274;28;20528;-65
2023/07/28 02:34:13;;;;;;;23.10;11.57;;;;;;;;;;5041295;28;20775;-62
2023/07/28 02:36:40;;;;;;;24.90;11.30;;;;;;;;;;5045072;28;20630;-56
2023/07/28 02:39:06;;;;;;;26.00;12.05;;;;;;;;;;5044586;28;20049;-64
2023/07/28 02:41:33;;;;;;;27.77;12.43;;;;;;;;;;5045753;28;20148;-59
2023/07/28 02:43:59;;;;;;;27.65;12.15;;;;;;;;;;5044944;28;20105;-64
2023/07/28 02:46:25;;;;;;;23.13;11.57;;;;;;;;;;5044507;28;20108;-60
2023/07/28 02:48:52;;;;;;;21.50;11.88;;;;;;;;;;5043634;28;20049;-65
2023/07/28 02:51:18;;;;;;;30.20;13.55;;;;;;;;;;5044975;28;20084;-65
2023/07/28 02:53:45;;;;;;;28.30;13.43;;;;;;;;;;5041915;28;20057;-60
2023/07/28 02:56:11;;;;;;;24.88;12.95;;;;;;;;;;5043854;28;20605;-65
2023/07/28 02:58:38;;;;;;;30.25;13.15;;;;;;;;;;5045347;28;20594;-65
2023/07/28 03:01:05;;;;;;;28.15;12.88;;;;;;;;;;5028248;28;20061;-65
2023/07/28 03:03:31;;;;;;;26.77;12.95;;;;;;;;;;5044352;28;20053;-64
2023/07/28 03:05:58;;;;;;;30.48;13.18;;;;;;;;;;5044376;28;20115;-65
2023/07/28 03:08:24;;;;;;;33.70;12.90;;;;;;;;;;5045094;28;20050;-65
2023/07/28 03:10:55;;;;;;;30.55;13.48;;;;;;;;;;5042159;28;20124;-62
2023/07/28 03:13:22;;;;;;;22.38;12.35;;;;;;;;;;5041145;28;20435;-63
2023/07/28 03:15:48;;;;;;;25.27;12.27;;;;;;;;;;5043512;28;20049;-62
2023/07/28 03:18:15;;;;;;;32.53;12.43;;;;;;;;;;5042137;28;20068;-64
2023/07/28 03:20:42;;;;;;;25.55;12.25;;;;;;;;;;5041083;28;20140;-59
2023/07/28 03:23:08;;;;;;;28.70;12.48;;;;;;;;;;5044059;28;20111;-64
2023/07/28 03:25:35;;;;;;;30.17;13.02;;;;;;;;;;5044741;28;20161;-62
2023/07/28 03:28:01;;;;;;;30.35;13.07;;;;;;;;;;5044430;28;20136;-64
2023/07/28 03:30:28;;;;;;;33.75;12.35;;;;;;;;;;5044244;28;20057;-62
2023/07/28 03:32:54;;;;;;;28.73;13.23;;;;;;;;;;5044581;28;20055;-65
2023/07/28 03:35:21;;;;;;;34.97;13.05;;;;;;;;;;5042967;28;20046;-63
2023/07/28 03:37:47;;;;;;;30.70;12.98;;;;;;;;;;5035119;28;20424;-62
2023/07/28 03:40:14;;;;;;;25.98;12.13;;;;;;;;;;5044114;28;20413;-65
2023/07/28 03:42:40;;;;;;;34.80;14.10;;;;;;;;;;5042388;28;20049;-65
2023/07/28 03:45:07;;;;;;;35.70;12.23;;;;;;;;;;5032873;28;20521;-60
2023/07/28 03:47:33;;;;;;;33.28;12.52;;;;;;;;;;5029979;28;20145;-62
2023/07/28 03:50:00;;;;;;;33.60;13.50;;;;;;;;;;5043186;28;20057;-62
2023/07/28 03:52:26;;;;;;;34.90;12.55;;;;;;;;;;5032043;28;20116;-65
2023/07/28 03:54:53;;;;;;;28.83;14.35;;;;;;;;;;5030047;28;20156;-65
2023/07/28 03:57:19;;;;;;;31.02;13.63;;;;;;;;;;5039809;28;20053;-61
2023/07/28 03:59:46;;;;;;;33.58;13.88;;;;;;;;;;5040684;28;20504;-65
2023/07/28 04:02:12;;;;;;;35.95;13.98;;;;;;;;;;5039085;28;20058;-66
2023/07/28 04:04:38;;;;;;;36.42;14.05;;;;;;;;;;5043111;28;20068;-61
2023/07/28 04:07:05;;;;;;;32.15;14.38;;;;;;;;;;5043434;28;20057;-64
2023/07/28 04:09:31;;;;;;;32.92;15.20;;;;;;;;;;5043020;28;21692;-61
2023/07/28 04:11:58;;;;;;;37.42;15.93;;;;;;;;;;5041857;28;20440;-65
2023/07/28 04:14:25;;;;;;;38.95;15.35;;;;;;;;;;5055544;28;20054;-63
2023/07/28 04:16:51;;;;;;;41.05;16.35;;;;;;;;;;5042360;28;20054;-64
2023/07/28 04:19:17;;;;;;;46.60;17.35;;;;;;;;;;5041932;28;20160;-64
2023/07/28 04:21:45;;;;;;;36.28;15.63;;;;;;;;;;5041377;28;20057;-63
2023/07/28 04:24:11;;;;;;;41.33;16.08;;;;;;;;;;5031704;28;20065;-61
2023/07/28 04:26:38;;;;;;;38.05;16.25;;;;;;;;;;5043431;28;20054;-60
2023/07/28 04:29:05;;;;;;;31.83;15.38;;;;;;;;;;5044371;28;20117;-63
2023/07/28 04:31:31;;;;;;;32.70;14.35;;;;;;;;;;5041360;28;20063;-65
2023/07/28 04:33:58;;;;;;;29.63;14.88;;;;;;;;;;5042830;28;20056;-64
2023/07/28 04:36:25;;;;;;;37.45;16.40;;;;;;;;;;5041548;28;20146;-62
2023/07/28 04:38:52;;;;;;;33.67;15.02;;;;;;;;;;5042202;28;20184;-65
2023/07/28 04:41:18;;;;;;;32.53;15.15;;;;;;;;;;5041025;28;20060;-62
2023/07/28 04:43:45;;;;;;;30.02;14.55;;;;;;;;;;5041994;28;20132;-62
2023/07/28 04:46:11;;;;;;;30.63;14.13;;;;;;;;;;5041052;28;20705;-64
2023/07/28 04:48:38;;;;;;;33.83;15.48;;;;;;;;;;5042093;28;20057;-63
2023/07/28 04:51:04;;;;;;;38.40;15.40;;;;;;;;;;5042305;28;20524;-65
2023/07/28 04:53:31;;;;;;;45.30;17.35;;;;;;;;;;5041899;28;20057;-61
2023/07/28 04:55:57;;;;;;;35.17;16.52;;;;;;;;;;5042863;28;20049;-62
2023/07/28 04:58:24;;;;;;;38.97;16.27;;;;;;;;;;5041217;28;20054;-64
2023/07/28 05:00:50;;;;;;;39.85;16.65;;;;;;;;;;5042570;28;20073;-64
2023/07/28 05:03:16;;;;;;;38.08;16.30;;;;;;;;;;5028971;28;20108;-61
2023/07/28 05:05:44;;;;;;;37.25;15.63;;;;;;;;;;5030843;28;20080;-65
2023/07/28 05:08:10;;;;;;;47.15;18.92;;;;;;;;;;5033644;28;20057;-62
2023/07/28 05:10:37;;;;;;;43.53;16.85;;;;;;;;;;5023920;28;20050;-62
2023/07/28 05:13:04;;;;;;;40.40;15.32;;;;;;;;;;5022464;28;20720;-62
2023/07/28 05:15:30;;;;;;;49.03;16.63;;;;;;;;;;5023470;28;20060;-64
2023/07/28 05:17:57;;;;;;;38.67;16.27;;;;;;;;;;5029727;28;20573;-64
2023/07/28 05:20:23;;;;;;;42.88;17.30;;;;;;;;;;5041875;28;20068;-60
2023/07/28 05:22:50;;;;;;;34.58;15.95;;;;;;;;;;5023863;28;20140;-64
2023/07/28 05:25:16;;;;;;;45.88;15.38;;;;;;;;;;5035042;28;20081;-65
2023/07/28 05:27:43;;;;;;;41.65;15.60;;;;;;;;;;5040849;28;20052;-59
2023/07/28 05:30:09;;;;;;;36.90;15.98;;;;;;;;;;5030757;28;20528;-64
2023/07/28 05:32:36;;;;;;;33.60;15.38;;;;;;;;;;5038297;28;20519;-63
2023/07/28 05:35:04;;;;;;;39.63;17.70;;;;;;;;;;5042548;28;20056;-61
2023/07/28 05:37:30;;;;;;;33.72;15.55;;;;;;;;;;5040875;28;20148;-64
2023/07/28 05:39:56;;;;;;;35.13;16.10;;;;;;;;;;5041864;28;20120;-64
2023/07/28 05:42:24;;;;;;;35.17;14.90;;;;;;;;;;5042461;28;20551;-65
2023/07/28 05:44:52;;;;;;;38.45;16.55;;;;;;;;;;5039715;28;20519;-65
2023/07/28 05:47:19;;;;;;;36.03;15.90;;;;;;;;;;5038180;28;20058;-63
2023/07/28 05:49:45;;;;;;;39.17;16.67;;;;;;;;;;5041820;28;20053;-59
2023/07/28 05:52:12;;;;;;;34.80;15.10;;;;;;;;;;5033967;28;20103;-61
2023/07/28 05:54:38;;;;;;;34.53;14.57;;;;;;;;;;5035786;28;20159;-62
2023/07/28 05:57:05;;;;;;;25.90;13.77;;;;;;;;;;5036475;28;20083;-65
2023/07/28 05:59:31;;;;;;;31.55;13.93;;;;;;;;;;5033113;28;20049;-63
2023/07/28 06:01:58;;;;;;;34.08;14.90;;;;;;;;;;5034455;28;20057;-62
2023/07/28 06:04:25;;;;;;;29.88;12.60;;;;;;;;;;5039273;28;20137;-62
2023/07/28 06:06:51;;;;;;;30.58;13.65;;;;;;;;;;5041872;28;20152;-67
2023/07/28 06:09:18;;;;;;;25.88;13.77;;;;;;;;;;5043060;28;20065;-59
2023/07/28 06:11:44;;;;;;;27.35;12.18;;;;;;;;;;5039994;28;20061;-65
2023/07/28 06:14:11;;;;;;;28.02;13.02;;;;;;;;;;5040214;28;20497;-63
2023/07/28 06:16:37;;;;;;;27.48;13.18;;;;;;;;;;5038649;28;20053;-64
2023/07/28 06:19:04;;;;;;;27.40;11.32;;;;;;;;;;5039502;28;20514;-65
2023/07/28 06:21:30;;;;;;;30.52;13.13;;;;;;;;;;5057812;28;20099;-62
2023/07/28 06:23:57;;;;;;;26.48;12.50;;;;;;;;;;5038388;28;20496;-66
2023/07/28 06:26:23;;;;;;;28.33;12.57;;;;;;;;;;5041292;28;20045;-62
2023/07/28 06:28:50;;;;;;;29.17;12.77;;;;;;;;;;5030720;28;20054;-63
2023/07/28 06:31:17;;;;;;;30.83;12.77;;;;;;;;;;5041552;28;20087;-61
2023/07/28 06:33:43;;;;;;;23.98;12.82;;;;;;;;;;5039268;28;20577;-66
2023/07/28 06:36:10;;;;;;;27.15;12.25;;;;;;;;;;5029415;28;20662;-62
2023/07/28 06:38:36;;;;;;;24.70;12.60;;;;;;;;;;5040614;28;20623;-61
2023/07/28 06:41:03;;;;;;;22.85;11.68;;;;;;;;;;5041023;28;20508;-65
2023/07/28 06:43:29;;;;;;;23.13;12.18;;;;;;;;;;5040516;28;20053;-65
2023/07/28 06:45:56;;;;;;;27.27;13.23;;;;;;;;;;5040445;28;20053;-64
2023/07/28 06:48:22;;;;;;;27.48;13.40;;;;;;;;;;5040929;28;20061;-62
2023/07/28 06:50:49;;;;;;;34.65;13.73;;;;;;;;;;5040694;28;20053;-64
2023/07/28 06:53:15;;;;;;;32.63;13.07;;;;;;;;;;5039247;28;20075;-62
2023/07/28 06:55:43;;;;;;;31.23;13.02;;;;;;;;;;5043776;28;20064;-64
2023/07/28 06:58:10;;;;;;;27.15;12.40;;;;;;;;;;5043608;28;20053;-62
2023/07/28 07:00:37;;;;;;;27.25;13.00;;;;;;;;;;5025903;28;20435;-63
2023/07/28 07:03:03;;;;;;;24.95;12.52;;;;;;;;;;5033120;28;20135;-62
2023/07/28 07:05:30;;;;;;;25.17;13.45;;;;;;;;;;5045192;28;20049;-65
2023/07/28 07:07:57;;;;;;;28.67;13.93;;;;;;;;;;5044622;28;20246;-60
2023/07/28 07:10:24;;;;;;;27.45;12.75;;;;;;;;;;5043809;28;20061;-65
2023/07/28 07:12:51;;;;;;;23.02;12.60;;;;;;;;;;5040759;28;20080;-65
2023/07/28 07:15:17;;;;;;;26.95;13.60;;;;;;;;;;5041792;28;20061;-65
2023/07/28 07:17:44;;;;;;;26.23;13.40;;;;;;;;;;5042642;28;20064;-65
2023/07/28 07:20:11;;;;;;;23.38;14.10;;;;;;;;;;5044718;28;20049;-65
2023/07/28 07:22:37;;;;;;;32.05;14.68;;;;;;;;;;5044779;28;20084;-61
2023/07/28 07:25:04;;;;;;;23.83;12.75;;;;;;;;;;5043924;28;20531;-62
2023/07/28 07:27:31;;;;;;;23.35;13.07;;;;;;;;;;5040607;28;20401;-60
2023/07/28 07:29:57;;;;;;;27.58;13.50;;;;;;;;;;5043510;28;20049;-59
2023/07/28 07:32:24;;;;;;;24.75;13.15;;;;;;;;;;5043518;28;20060;-63
2023/07/28 07:34:50;;;;;;;24.83;13.35;;;;;;;;;;5044304;28;20099;-65
2023/07/28 07:37:17;;;;;;;24.98;14.30;;;;;;;;;;5044588;28;20076;-64
2023/07/28 07:39:44;;;;;;;26.33;14.82;;;;;;;;;;5042549;28;21346;-62
2023/07/28 07:42:14;;;;;;;28.77;13.90;;;;;;;;;;5045200;28;20650;-65
2023/07/28 07:44:41;;;;;;;28.52;15.15;;;;;;;;;;5044812;28;20061;-64
2023/07/28 07:47:14;;;;;;;24.58;14.15;;;;;;;;;;5046872;28;20057;-65
2023/07/28 07:49:41;;;;;;;28.73;14.75;;;;;;;;;;5041828;28;20045;-65
2023/07/28 07:52:09;;;;;;;30.58;15.02;;;;;;;;;;5041632;28;20050;-64
2023/07/28 07:54:35;;;;;;;27.67;13.60;;;;;;;;;;5042227;28;20053;-65
2023/07/28 07:57:03;;;;;;;30.10;14.77;;;;;;;;;;5043666;28;20547;-65
2023/07/28 07:59:32;;;;;;;23.35;13.27;;;;;;;;;;5042590;28;20581;-64
2023/07/28 08:02:02;;;;;;;19.83;12.43;;;;;;;;;;5043293;28;20053;-62
2023/07/28 08:04:31;;;;;;;23.45;13.32;;;;;;;;;;5038037;28;20370;-60
2023/07/28 08:06:58;;;;;;;24.90;11.90;;;;;;;;;;5041254;28;20130;-62
2023/07/28 08:09:24;;;;;;;24.65;12.73;;;;;;;;;;5041329;28;20057;-66
2023/07/28 08:11:52;;;;;;;19.95;13.27;;;;;;;;;;5042431;28;20054;-62
2023/07/28 08:14:19;;;;;;;22.67;11.75;;;;;;;;;;5049861;28;20459;-62
2023/07/28 08:16:45;;;;;;;20.52;12.88;;;;;;;;;;5042306;28;20061;-61
2023/07/28 08:19:12;;;;;;;19.23;11.45;;;;;;;;;;5050498;28;20104;-66
2023/07/28 08:21:38;;;;;;;18.52;11.77;;;;;;;;;;5040611;28;20068;-63
2023/07/28 08:24:05;;;;;;;21.80;11.50;;;;;;;;;;5050761;28;20077;-59
2023/07/28 08:26:31;;;;;;;17.45;10.63;;;;;;;;;;5042894;28;20155;-63
2023/07/28 08:28:58;;;;;;;16.27;10.38;;;;;;;;;;5040541;28;20092;-66
2023/07/28 08:31:25;;;;;;;18.13;10.88;;;;;;;;;;5038903;28;20131;-64
2023/07/28 08:33:51;;;;;;;15.68;10.20;;;;;;;;;;5042113;28;20060;-61
2023/07/28 08:36:18;;;;;;;14.60;9.63;;;;;;;;;;5042872;28;20506;-66
2023/07/28 08:38:45;;;;;;;18.45;10.88;;;;;;;;;;5052544;28;20052;-63
2023/07/28 08:41:12;;;;;;;19.13;9.40;;;;;;;;;;5042804;28;20060;-66
2023/07/28 08:43:39;;;;;;;13.90;8.45;;;;;;;;;;5037877;28;20053;-64
2023/07/28 08:46:08;;;;;;;11.70;8.40;;;;;;;;;;5042593;28;20045;-65
2023/07/28 08:48:34;;;;;;;16.50;9.10;;;;;;;;;;5042487;28;20049;-60
2023/07/28 08:51:02;;;;;;;16.02;8.98;;;;;;;;;;5048392;28;20515;-66
2023/07/28 08:53:28;;;;;;;14.80;8.98;;;;;;;;;;5052863;28;20084;-62
2023/07/28 08:55:55;;;;;;;15.57;8.23;;;;;;;;;;5042480;28;20085;-65
2023/07/28 08:58:23;;;;;;;12.80;7.13;;;;;;;;;;5040104;28;20061;-64
2023/07/28 09:00:53;;;;;;;14.10;6.72;;;;;;;;;;5038824;28;20053;-64
2023/07/28 09:03:20;;;;;;;7.35;5.32;;;;;;;;;;5038604;28;20064;-66
2023/07/28 09:05:47;;;;;;;11.65;5.38;;;;;;;;;;5040256;28;20084;-65
2023/07/28 09:08:14;;;;;;;7.32;4.80;;;;;;;;;;5040029;28;20128;-62
2023/07/28 09:10:49;;;;;;;9.32;4.45;;;;;;;;;;5042676;28;20124;-62
2023/07/28 09:13:15;;;;;;;;;;;;;;;;;;5040718;28;20423;-62
2023/07/28 09:15:43;;;;;;;12.48;4.55;;;;;;;;;;5050499;28;45580;-64
2023/07/28 09:18:10;;;;;;;9.07;4.40;;;;;;;;;;5043458;28;20053;-65
2023/07/28 09:20:38;;;;;;;6.55;3.53;;;;;;;;;;5041265;28;20049;-65
2023/07/28 09:23:05;;;;;;;9.20;3.55;;;;;;;;;;5043131;28;20460;-67
2023/07/28 09:25:32;;;;;;;6.68;3.05;;;;;;;;;;5045136;28;20472;-66
2023/07/28 09:27:59;;;;;;;6.07;3.20;;;;;;;;;;5040078;28;20063;-62
2023/07/28 09:30:25;;;;;;;5.53;2.90;;;;;;;;;;5040708;28;20080;-65
2023/07/28 09:32:54;;;;;;;6.20;3.33;;;;;;;;;;5040461;28;20049;-62
2023/07/28 09:35:21;;;;;;;7.88;3.17;;;;;;;;;;5041612;28;20107;-63
2023/07/28 09:37:49;;;;;;;9.23;4.40;;;;;;;;;;5041862;28;20060;-61
2023/07/28 09:40:17;;;;;;;5.32;3.10;;;;;;;;;;5027802;28;20061;-66
2023/07/28 09:42:45;;;;;;;8.65;3.70;;;;;;;;;;5040170;28;20532;-66
2023/07/28 09:45:12;;;;;;;9.45;3.72;;;;;;;;;;5026800;28;20053;-61
2023/07/28 09:48:02;;;;;;;6.10;3.72;;;;;;;;;;5040494;28;21174;-63
2023/07/28 09:50:31;;;;;;;4.63;3.78;;;;;;;;;;5039209;28;20504;-62
2023/07/28 09:53:01;;;;;;;8.52;3.45;;;;;;;;;;5040881;28;20165;-62
2023/07/28 09:55:28;;;;;;;4.38;3.22;;;;;;;;;;5040381;28;20072;-64
2023/07/28 09:57:55;;;;;;;8.20;3.45;;;;;;;;;;5038304;28;20551;-64
2023/07/28 10:00:22;;;;;;;10.82;3.85;;;;;;;;;;5041019;28;20492;-64
2023/07/28 10:02:50;;;;;;;6.32;3.22;;;;;;;;;;5040276;28;20046;-61
2023/07/28 10:05:17;;;;;;;10.82;3.38;;;;;;;;;;5041299;28;20591;-65
2023/07/28 10:07:44;;;;;;;9.73;3.90;;;;;;;;;;5041808;28;20073;-65
2023/07/28 10:10:13;;;;;;;9.45;4.63;;;;;;;;;;5040292;28;20113;-60
2023/07/28 10:12:44;;;;;;;8.35;3.92;;;;;;;;;;5038107;28;20061;-58
2023/07/28 10:15:17;;;;;;;6.18;4.18;;;;;;;;;;5041200;28;20594;-62
2023/07/28 10:17:44;;;;;;;7.30;4.13;;;;;;;;;;5039883;28;20061;-65
2023/07/28 10:20:27;;;;;;;5.90;4.22;;;;;;;;;;5037714;28;20085;-64
2023/07/28 10:22:54;;;;;;;6.72;4.10;;;;;;;;;;5037866;28;20141;-62
2023/07/28 10:25:25;;;;;;;10.07;4.13;;;;;;;;;;5048447;28;20520;-65
2023/07/28 10:27:51;;;;;;;8.65;4.28;;;;;;;;;;5040155;28;20083;-65
2023/07/28 10:30:20;;;;;;;10.93;4.40;;;;;;;;;;5040457;28;20045;-60
2023/07/28 10:32:50;;;;;;;7.00;4.03;;;;;;;;;;5038915;28;20045;-66
2023/07/28 10:35:23;;;;;;;10.90;5.15;;;;;;;;;;5044048;28;20101;-66
2023/07/28 10:37:50;;;;;;;8.52;4.38;;;;;;;;;;5027311;28;20054;-66
2023/07/28 10:40:26;;;;;;;8.30;3.72;;;;;;;;;;5044241;28;20064;-62
2023/07/28 10:42:53;;;;;;;8.27;3.80;;;;;;;;;;5043783;28;20053;-62
2023/07/28 10:45:20;;;;;;;7.10;4.03;;;;;;;;;;5043905;28;20117;-55
2023/07/28 10:47:47;;;;;;;7.15;3.95;;;;;;;;;;5046843;28;20104;-65
2023/07/28 10:50:14;;;;;;;8.05;4.05;;;;;;;;;;5038454;28;20515;-65
2023/07/28 10:52:41;;;;;;;7.72;3.92;;;;;;;;;;5040955;28;20053;-64
2023/07/28 10:55:18;;;;;;;8.95;3.92;;;;;;;;;;5050626;28;20054;-64
2023/07/28 10:57:45;;;;;;;9.00;4.32;;;;;;;;;;5060310;28;20060;-64
2023/07/28 11:00:13;;;;;;;5.72;4.30;;;;;;;;;;5044049;28;20106;-63
2023/07/28 11:02:43;;;;;;;6.63;4.95;;;;;;;;;;5037833;28;20058;-62
2023/07/28 11:05:12;;;;;;;6.05;4.38;;;;;;;;;;5042588;28;20058;-58
2023/07/28 11:07:44;;;;;;;7.30;4.43;;;;;;;;;;5039395;28;20119;-61
2023/07/28 11:10:14;;;;;;;7.53;4.95;;;;;;;;;;5049820;28;20277;-64
2023/07/28 11:12:42;;;;;;;9.38;4.95;;;;;;;;;;5032262;28;20057;-61
2023/07/28 11:15:12;;;;;;;5.85;4.57;;;;;;;;;;5038573;28;20049;-64
2023/07/28 11:17:41;;;;;;;8.00;5.32;;;;;;;;;;5034468;28;20050;-64
2023/07/28 11:20:21;;;;;;;7.78;5.10;;;;;;;;;;5042377;28;20143;-66
2023/07/28 11:22:57;;;;;;;8.23;4.82;;;;;;;;;;5044775;28;20099;-62
2023/07/28 11:25:24;;;;;;;6.47;5.05;;;;;;;;;;5038090;28;20053;-62
2023/07/28 11:27:51;;;;;;;6.78;5.47;;;;;;;;;;5025575;28;20077;-65
2023/07/28 11:30:18;;;;;;;10.63;5.43;;;;;;;;;;5038400;28;20081;-66
2023/07/28 11:32:48;;;;;;;10.73;5.32;;;;;;;;;;5038063;28;20050;-65
2023/07/28 11:35:15;;;;;;;9.68;4.85;;;;;;;;;;5044072;28;20056;-62
2023/07/28 11:37:43;;;;;;;8.70;5.85;;;;;;;;;;5044029;28;20168;-61
2023/07/28 11:40:13;;;;;;;9.18;5.45;;;;;;;;;;5043159;28;20365;-63
2023/07/28 11:42:53;;;;;;;6.43;4.47;;;;;;;;;;5042958;28;20076;-65
2023/07/28 11:45:22;;;;;;;10.65;5.18;;;;;;;;;;5043097;28;20065;-64
2023/07/28 11:47:54;;;;;;;7.32;5.43;;;;;;;;;;5052794;28;20139;-65
2023/07/28 11:50:24;;;;;;;8.07;5.30;;;;;;;;;;5039011;28;20049;-63
2023/07/28 11:52:50;;;;;;;7.45;4.75;;;;;;;;;;5043802;28;20060;-64
2023/07/28 11:55:18;;;;;;;7.22;4.75;;;;;;;;;;5041795;28;20054;-67
2023/07/28 11:57:44;;;;;;;4.85;4.35;;;;;;;;;;5042664;28;20568;-66
2023/07/28 12:00:12;;;;;;;7.75;4.20;;;;;;;;;;5042882;28;20050;-63
2023/07/28 12:02:39;;;;;;;6.20;4.00;;;;;;;;;;5039416;28;20077;-65
2023/07/28 12:05:15;;;;;;;7.97;4.15;;;;;;;;;;5039005;28;20054;-63
2023/07/28 12:07:48;;;;;;;7.38;3.55;;;;;;;;;;5030983;28;20493;-63
2023/07/28 12:10:15;;;;;;;7.28;3.72;;;;;;;;;;5051063;28;20060;-61
2023/07/28 12:13:06;;;;;;;7.22;3.88;;;;;;;;;;5043721;28;20069;-65
2023/07/28 12:15:40;;;;;;;6.85;3.72;;;;;;;;;;5040832;28;20065;-67
2023/07/28 12:18:13;;;;;;;4.72;3.50;;;;;;;;;;5051458;28;20144;-64
2023/07/28 12:20:53;;;;;;;6.68;3.70;;;;;;;;;;5038682;28;20515;-67
2023/07/28 12:23:20;;;;;;;7.35;4.03;;;;;;;;;;5043375;28;20136;-64
2023/07/28 12:25:50;;;;;;;8.90;4.03;;;;;;;;;;5032765;28;20057;-62
2023/07/28 12:28:17;;;;;;;7.72;3.70;;;;;;;;;;5063379;28;20095;-63
2023/07/28 12:30:45;;;;;;;6.72;3.75;;;;;;;;;;5054550;28;20053;-65
2023/07/28 12:33:11;;;;;;;4.80;3.88;;;;;;;;;;5063214;28;20156;-61
2023/07/28 12:35:41;;;;;;;5.00;4.22;;;;;;;;;;5047789;28;20104;-65
2023/07/28 12:38:10;;;;;;;6.13;4.20;;;;;;;;;;5031534;28;20053;-61
2023/07/28 12:40:39;;;;;;;6.35;3.70;;;;;;;;;;5034523;28;20050;-66
2023/07/28 12:43:09;;;;;;;7.00;4.40;;;;;;;;;;5040437;28;20512;-64
2023/07/28 12:45:56;;;;;;;5.63;4.80;;;;;;;;;;5045851;28;20057;-64
2023/07/28 12:48:25;;;;;;;7.70;5.13;;;;;;;;;;5045739;28;20141;-65
2023/07/28 12:50:51;;;;;;;6.65;4.72;;;;;;;;;;5048214;28;20084;-66
2023/07/28 12:53:29;;;;;;;8.25;5.70;;;;;;;;;;5040517;28;20552;-66
2023/07/28 12:55:55;;;;;;;6.80;5.07;;;;;;;;;;5031222;28;20080;-63
2023/07/28 12:58:26;;;;;;;5.35;4.78;;;;;;;;;;5055014;28;20057;-65
2023/07/28 13:00:57;;;;;;;6.70;4.70;;;;;;;;;;5041052;28;20162;-62
2023/07/28 13:03:27;;;;;;;7.95;4.82;;;;;;;;;;5043047;28;20056;-62
2023/07/28 13:05:54;;;;;;;6.05;4.50;;;;;;;;;;5042174;28;20148;-64
2023/07/28 13:08:20;;;;;;;5.82;4.45;;;;;;;;;;5038542;28;20049;-64
2023/07/28 13:11:06;;;;;;;7.35;4.70;;;;;;;;;;5029163;28;20529;-65
2023/07/28 13:13:36;;;;;;;5.55;4.95;;;;;;;;;;5027081;28;20136;-66
2023/07/28 13:16:06;;;;;;;8.35;4.82;;;;;;;;;;5033916;28;20082;-65
2023/07/28 13:18:36;;;;;;;6.28;4.50;;;;;;;;;;5022714;28;20058;-61
2023/07/28 13:21:02;;;;;;;6.03;4.53;;;;;;;;;;5040331;28;20049;-61
2023/07/28 13:23:29;;;;;;;5.38;3.47;;;;;;;;;;5041724;28;20054;-66
2023/07/28 13:25:55;;;;;;;6.80;3.80;;;;;;;;;;5041949;28;20412;-65
2023/07/28 13:28:22;;;;;;;4.18;3.42;;;;;;;;;;5040106;28;20057;-62
2023/07/28 13:30:48;;;;;;;5.20;3.58;;;;;;;;;;5042785;28;20518;-63
2023/07/28 13:33:15;;;;;;;7.03;3.90;;;;;;;;;;5042655;28;20052;-66
2023/07/28 13:35:41;;;;;;;5.60;3.65;;;;;;;;;;5053346;28;20056;-64
2023/07/28 13:38:08;;;;;;;7.30;3.38;;;;;;;;;;5049538;28;20054;-65
2023/07/28 13:40:34;;;;;;;5.85;4.30;;;;;;;;;;5039659;28;20161;-62
2023/07/28 13:43:04;;;;;;;6.38;3.30;;;;;;;;;;5042213;28;20437;-64
2023/07/28 13:45:32;;;;;;;7.00;3.80;;;;;;;;;;5041256;28;20432;-63
2023/07/28 13:47:59;;;;;;;6.90;3.70;;;;;;;;;;5041093;28;20050;-65
2023/07/28 13:50:26;;;;;;;7.35;3.45;;;;;;;;;;5041934;28;20058;-66
2023/07/28 13:52:55;;;;;;;3.55;3.00;;;;;;;;;;5040737;28;20062;-64
2023/07/28 13:55:22;;;;;;;4.32;2.75;;;;;;;;;;5040227;28;20054;-62
2023/07/28 13:58:07;;;;;;;6.65;3.13;;;;;;;;;;5042513;28;20057;-66
2023/07/28 14:00:33;;;;;;;5.80;3.53;;;;;;;;;;5039419;28;20921;-65
2023/07/28 14:03:00;;;;;;;5.05;2.70;;;;;;;;;;5036831;28;20439;-65
2023/07/28 14:05:27;;;;;;;4.07;3.00;;;;;;;;;;5042185;28;20470;-61
2023/07/28 14:07:53;;;;;;;6.75;3.22;;;;;;;;;;5051733;28;20167;-62
2023/07/28 14:10:20;;;;;;;9.40;3.40;;;;;;;;;;5039098;28;20058;-66
2023/07/28 14:12:46;;;;;;;7.90;3.10;;;;;;;;;;5036317;28;20583;-62
2023/07/28 14:15:13;;;;;;;7.20;3.22;;;;;;;;;;5042305;28;20057;-66
2023/07/28 14:17:39;;;;;;;4.97;2.88;;;;;;;;;;5044009;28;20519;-67
2023/07/28 14:20:06;;;;;;;4.13;3.22;;;;;;;;;;5041026;28;20603;-66
2023/07/28 14:22:32;;;;;;;5.63;3.00;;;;;;;;;;5044308;28;20053;-61
2023/07/28 14:24:59;;;;;;;4.35;3.08;;;;;;;;;;5053585;28;20045;-63
2023/07/28 14:27:25;;;;;;;4.80;2.75;;;;;;;;;;5044580;28;20139;-62
2023/07/28 14:29:52;;;;;;;5.47;3.00;;;;;;;;;;5043545;28;20587;-62
2023/07/28 14:32:18;;;;;;;5.90;2.92;;;;;;;;;;5043985;28;20061;-61